Time;durP1;ratioP1;P1;durP2;ratioP2;P2;SDS_P1;SDS_P2;PMS_P1;PMS_P2;Temp;Humidity;BMP_temperature;BMP_pressure;BME280_temperature;BME280_humidity;BME280_pressure;Samples;Min_cycle;Max_cycle;Signal;HPM_P1;HPM_P2
2024/03/19 00:02:06;;;;;;;12.70;8.50;;;;;;;5.10;60.57;99324.73;233664;168;153989;-60
2024/03/19 00:07:09;;;;;;;14.10;8.80;;;;;;;5.12;60.84;99329.39;233670;179;142036;-59
2024/03/19 00:12:12;;;;;;;13.60;9.20;;;;;;;5.13;61.04;99331.11;233691;179;137448;-59
2024/03/19 00:17:15;;;;;;;13.50;9.30;;;;;;;5.15;60.57;99331.21;233732;172;154161;-59
2024/03/19 00:22:19;;;;;;;16.30;10.30;;;;;;;5.05;60.55;99328.75;233709;180;137768;-59
2024/03/19 00:27:22;;;;;;;15.10;9.30;;;;;;;5.01;60.72;99323.29;233638;180;137932;-60
2024/03/19 00:32:27;;;;;;;12.90;9.60;;;;;;;5.04;60.85;99324.92;233676;180;152803;-58
2024/03/19 00:37:30;;;;;;;15.50;10.80;;;;;;;4.98;60.94;99326.72;233575;180;138780;-59
2024/03/19 00:42:33;;;;;;;15.80;9.40;;;;;;;5.02;61.21;99321.64;233767;180;140934;-59
2024/03/19 00:47:37;;;;;;;13.30;9.20;;;;;;;5.04;61.13;99322.29;233750;180;153185;-59
2024/03/19 00:52:40;;;;;;;13.90;9.60;;;;;;;5.04;61.22;99323.50;233656;179;138195;-60
2024/03/19 00:57:43;;;;;;;17.10;10.20;;;;;;;5.03;61.50;99318.64;233740;180;136981;-59
2024/03/19 01:02:46;;;;;;;15.30;10.00;;;;;;;5.06;61.34;99320.97;233790;179;153390;-59
2024/03/19 01:07:49;;;;;;;14.80;9.90;;;;;;;5.06;61.09;99317.80;233739;179;137898;-59
2024/03/19 01:12:53;;;;;;;13.30;10.00;;;;;;;5.05;61.41;99317.14;233727;180;137841;-58
2024/03/19 01:17:56;;;;;;;15.90;11.40;;;;;;;5.05;61.58;99323.67;233704;180;154124;-58
2024/03/19 01:22:59;;;;;;;15.40;10.20;;;;;;;5.04;61.45;99323.34;233331;180;140527;-58
2024/03/19 01:28:02;;;;;;;14.10;10.50;;;;;;;4.98;61.38;99322.66;233659;180;137344;-59
2024/03/19 01:33:05;;;;;;;14.80;10.30;;;;;;;4.99;61.52;99317.36;233752;180;153814;-60
2024/03/19 01:38:10;;;;;;;14.50;10.40;;;;;;;4.98;61.70;99322.48;233593;180;138611;-60
2024/03/19 01:43:14;;;;;;;13.60;10.50;;;;;;;4.97;61.85;99320.94;233840;180;137959;-61
2024/03/19 01:48:17;;;;;;;15.30;10.60;;;;;;;4.96;61.63;99320.59;233809;180;153997;-61
2024/03/19 01:53:20;;;;;;;14.60;10.50;;;;;;;4.99;62.03;99319.30;233689;180;138486;-61
2024/03/19 01:58:23;;;;;;;14.70;11.00;;;;;;;5.00;61.96;99320.12;233795;180;137603;-60
2024/03/19 02:03:26;;;;;;;15.90;10.80;;;;;;;5.04;61.80;99318.07;233701;180;152977;-60
2024/03/19 02:08:30;;;;;;;16.10;11.30;;;;;;;4.94;62.01;99319.27;233403;180;138656;-60
2024/03/19 02:13:33;;;;;;;17.10;11.00;;;;;;;4.92;62.06;99319.89;233707;180;137158;-60
2024/03/19 02:18:37;;;;;;;14.20;10.90;;;;;;;4.95;62.11;99319.96;233683;179;153443;-60
2024/03/19 02:23:41;;;;;;;16.70;11.70;;;;;;;4.94;62.24;99322.44;233703;180;138292;-59
2024/03/19 02:28:44;;;;;;;16.80;11.60;;;;;;;4.98;62.10;99322.66;233868;179;137421;-61
2024/03/19 02:33:47;;;;;;;17.60;12.10;;;;;;;5.00;62.14;99324.01;233862;180;154241;-61
2024/03/19 02:38:51;;;;;;;19.20;12.80;;;;;;;5.01;62.27;99329.26;233858;179;139550;-61
2024/03/19 02:43:54;;;;;;;16.90;12.40;;;;;;;5.03;62.07;99333.39;233836;176;137947;-60
2024/03/19 02:48:57;;;;;;;18.00;12.90;;;;;;;4.99;62.24;99335.98;233687;180;153747;-60
2024/03/19 02:54:00;;;;;;;18.20;12.50;;;;;;;4.98;62.44;99339.20;233701;180;138391;-59
2024/03/19 02:59:04;;;;;;;18.40;13.20;;;;;;;5.01;62.65;99345.59;233737;179;138165;-60
2024/03/19 03:04:07;;;;;;;18.20;12.80;;;;;;;5.03;62.97;99346.07;233565;179;153329;-59
2024/03/19 03:09:09;;;;;;;17.00;12.40;;;;;;;5.03;63.09;99342.73;233882;179;137925;-58
2024/03/19 03:14:12;;;;;;;19.50;13.40;;;;;;;5.00;63.10;99343.89;233841;172;138110;-60
2024/03/19 03:19:15;;;;;;;21.30;14.10;;;;;;;5.05;63.15;99350.72;233818;179;153416;-61
2024/03/19 03:24:19;;;;;;;19.80;14.20;;;;;;;5.07;62.99;99354.17;233736;179;138619;-61
2024/03/19 03:29:22;;;;;;;18.80;14.20;;;;;;;5.05;63.12;99357.23;233748;179;138042;-60
2024/03/19 03:34:28;;;;;;;23.20;14.60;;;;;;;5.02;63.39;99361.39;233771;179;153572;-60
2024/03/19 03:39:31;;;;;;;21.10;14.60;;;;;;;5.02;63.55;99366.14;233789;179;137891;-60
2024/03/19 03:44:34;;;;;;;20.00;14.40;;;;;;;5.04;63.41;99368.36;233850;179;137332;-60
2024/03/19 03:49:37;;;;;;;23.20;15.50;;;;;;;5.02;63.82;99376.17;233635;180;153009;-59
2024/03/19 03:54:39;;;;;;;20.40;14.30;;;;;;;5.02;63.70;99375.46;233758;179;137339;-60
2024/03/19 03:59:42;;;;;;;20.90;15.00;;;;;;;5.04;63.92;99380.15;233798;179;138965;-60
2024/03/19 04:04:45;;;;;;;22.00;15.70;;;;;;;5.04;63.99;99382.77;233841;179;153008;-59
2024/03/19 04:09:48;;;;;;;20.20;15.50;;;;;;;5.06;64.17;99390.10;233708;179;137298;-59
2024/03/19 04:14:51;;;;;;;20.20;14.90;;;;;;;5.09;64.15;99390.88;233844;179;137083;-60
2024/03/19 04:19:54;;;;;;;20.10;14.60;;;;;;;5.12;64.16;99391.83;233817;179;153340;-60
2024/03/19 04:24:57;;;;;;;21.80;14.70;;;;;;;5.14;64.13;99395.43;233726;180;137777;-59
2024/03/19 04:30:00;;;;;;;18.70;13.90;;;;;;;5.17;64.18;99395.16;233788;180;137912;-58
2024/03/19 04:35:03;;;;;;;18.10;14.30;;;;;;;5.17;64.04;99395.86;233806;180;153240;-58
2024/03/19 04:40:07;;;;;;;19.70;14.20;;;;;;;5.19;64.09;99400.17;233815;180;137460;-60
2024/03/19 04:45:11;;;;;;;18.60;14.20;;;;;;;5.24;64.04;99406.19;233248;180;138684;-60
2024/03/19 04:50:14;;;;;;;18.30;14.00;;;;;;;5.27;63.94;99410.50;233803;180;153864;-60
2024/03/19 04:55:17;;;;;;;17.70;13.80;;;;;;;5.27;64.08;99416.64;233739;180;138313;-60
2024/03/19 05:00:21;;;;;;;18.80;14.40;;;;;;;5.26;64.09;99418.08;233784;168;137131;-57
2024/03/19 05:05:24;;;;;;;21.00;13.80;;;;;;;5.29;63.99;99416.39;233759;180;153210;-59
2024/03/19 05:10:27;;;;;;;16.90;13.50;;;;;;;5.30;64.09;99421.81;233579;180;138592;-59
2024/03/19 05:15:30;;;;;;;24.40;15.20;;;;;;;5.31;64.01;99428.30;233732;180;137410;-59
2024/03/19 05:20:34;;;;;;;37.10;23.00;;;;;;;5.34;63.87;99436.30;233451;180;153019;-58
2024/03/19 05:25:37;;;;;;;21.10;15.10;;;;;;;5.34;63.87;99443.48;233660;179;138021;-59
2024/03/19 05:30:40;;;;;;;17.80;13.40;;;;;;;5.39;63.98;99446.84;233715;180;137810;-60
2024/03/19 05:35:43;;;;;;;18.10;14.00;;;;;;;5.40;64.10;99453.31;233737;180;153180;-59
2024/03/19 05:40:46;;;;;;;22.00;15.00;;;;;;;5.42;64.07;99456.21;233833;180;137866;-60
2024/03/19 05:45:49;;;;;;;21.50;14.30;;;;;;;5.48;63.84;99461.67;233871;179;142378;-59
2024/03/19 05:50:52;;;;;;;17.10;13.70;;;;;;;5.53;63.91;99463.23;233695;180;154384;-59
2024/03/19 05:55:54;;;;;;;17.00;12.80;;;;;;;5.56;63.58;99469.64;233844;180;138053;-58
2024/03/19 06:00:59;;;;;;;15.90;12.20;;;;;;;5.60;63.25;99477.77;233226;180;138772;-58
2024/03/19 06:06:08;;;;;;;17.60;12.10;;;;;;;5.63;63.07;99482.27;233792;180;153319;-59
2024/03/19 06:11:12;;;;;;;132.10;87.00;;;;;;;5.69;64.01;99484.86;233808;168;138673;-59
2024/03/19 06:16:15;;;;;;;46.60;32.70;;;;;;;5.86;63.17;99490.78;233782;179;138339;-59
2024/03/19 06:21:18;;;;;;;82.90;64.60;;;;;;;5.87;62.52;99495.83;233745;179;153756;-59
2024/03/19 06:26:21;;;;;;;57.10;38.70;;;;;;;5.91;62.31;99498.35;233735;176;137829;-60
2024/03/19 06:31:23;;;;;;;14.90;11.20;;;;;;;6.01;61.93;99502.45;233761;179;138007;-60
2024/03/19 06:36:26;;;;;;;14.60;10.20;;;;;;;6.01;60.61;99507.02;233780;179;153858;-62
2024/03/19 06:41:32;;;;;;;11.10;9.40;;;;;;;5.96;59.87;99507.39;233782;179;137903;-64
2024/03/19 06:46:35;;;;;;;10.10;8.70;;;;;;;5.96;59.52;99509.33;233823;179;138791;-62
2024/03/19 06:51:39;;;;;;;19.10;8.90;;;;;;;5.93;58.90;99515.56;233673;179;154090;-62
2024/03/19 06:56:42;;;;;;;11.20;8.70;;;;;;;5.83;58.51;99515.86;233792;179;137690;-59
2024/03/19 07:01:45;;;;;;;213.50;144.10;;;;;;;5.80;59.01;99520.21;233728;179;137197;-60
2024/03/19 07:06:48;;;;;;;23.30;17.00;;;;;;;5.85;59.13;99523.39;233757;168;153827;-61
2024/03/19 07:11:51;;;;;;;15.10;10.60;;;;;;;6.01;59.15;99525.88;233633;180;141207;-62
2024/03/19 07:16:55;;;;;;;11.50;9.30;;;;;;;6.10;58.84;99529.21;233758;179;138345;-62
2024/03/19 07:21:58;;;;;;;11.50;9.60;;;;;;;6.23;58.12;99531.77;233828;180;153326;-61
2024/03/19 07:27:01;;;;;;;13.20;8.40;;;;;;;6.36;57.75;99538.84;233698;180;137193;-62
2024/03/19 07:32:09;;;;;;;13.50;9.30;;;;;;;6.41;57.37;99549.95;233688;180;139291;-61
2024/03/19 07:37:12;;;;;;;12.00;8.70;;;;;;;6.45;57.07;99553.33;233729;179;153788;-60
2024/03/19 07:42:15;;;;;;;17.00;8.60;;;;;;;6.51;56.39;99557.88;233704;179;138170;-64
2024/03/19 07:47:19;;;;;;;12.30;9.20;;;;;;;6.53;56.24;99568.71;233803;179;137600;-61
2024/03/19 07:52:22;;;;;;;11.00;8.60;;;;;;;6.52;56.08;99573.86;233692;179;154464;-61
2024/03/19 07:57:25;;;;;;;10.20;8.10;;;;;;;6.47;55.79;99581.64;233648;179;137892;-61
2024/03/19 08:02:28;;;;;;;16.00;9.10;;;;;;;6.41;55.53;99581.83;233680;179;138072;-62
2024/03/19 08:07:32;;;;;;;16.00;8.60;;;;;;;6.45;55.06;99579.75;233612;179;153503;-62
2024/03/19 08:12:35;;;;;;;12.40;8.30;;;;;;;6.60;55.63;99576.56;233626;179;138410;-63
2024/03/19 08:17:39;;;;;;;8.50;7.20;;;;;;;6.74;55.23;99580.63;233720;179;137834;-62
2024/03/19 08:22:43;;;;;;;11.60;7.20;;;;;;;6.86;54.43;99582.13;233486;180;153842;-61
2024/03/19 08:27:46;;;;;;;9.60;7.00;;;;;;;7.02;53.74;99578.30;233525;179;138643;-61
2024/03/19 08:32:49;;;;;;;434.60;334.70;;;;;;;7.12;53.94;99577.58;233760;180;137879;-59
2024/03/19 08:37:52;;;;;;;11.20;8.60;;;;;;;7.27;53.24;99574.86;233566;180;153028;-64
2024/03/19 08:42:55;;;;;;;9.20;7.30;;;;;;;7.40;53.38;99573.28;233667;180;138744;-62
2024/03/19 08:47:58;;;;;;;8.90;7.10;;;;;;;7.55;52.36;99571.79;233750;180;137186;-61
2024/03/19 08:53:02;;;;;;;8.90;6.70;;;;;;;7.67;51.76;99569.34;233746;180;153817;-61
2024/03/19 08:58:05;;;;;;;57.40;46.00;;;;;;;7.77;52.38;99570.33;233763;180;137240;-59
2024/03/19 09:03:08;;;;;;;10.40;7.80;;;;;;;7.93;52.27;99573.19;233345;180;138605;-60
2024/03/19 09:08:12;;;;;;;8.40;5.90;;;;;;;8.09;51.36;99575.17;233724;180;153080;-61
2024/03/19 09:13:14;;;;;;;11.70;5.70;;;;;;;8.21;50.15;99566.67;233753;180;137294;-62
2024/03/19 09:18:17;;;;;;;8.50;5.60;;;;;;;8.23;49.50;99564.29;233722;179;138292;-61
2024/03/19 09:23:20;;;;;;;7.20;5.20;;;;;;;8.28;49.32;99564.43;233817;180;153259;-62
2024/03/19 09:28:24;;;;;;;4.20;3.50;;;;;;;8.44;48.75;99569.07;233686;180;137817;-62
2024/03/19 09:33:28;;;;;;;289.70;207.00;;;;;;;8.54;48.01;99572.83;233723;180;137731;-63
2024/03/19 09:38:31;;;;;;;9.10;5.90;;;;;;;8.75;48.08;99571.19;233617;180;153369;-62
2024/03/19 09:43:36;;;;;;;95.90;72.00;;;;;;;8.88;47.70;99565.29;233641;180;137246;-64
2024/03/19 09:48:41;;;;;;;8.50;5.60;;;;;;;9.12;46.91;99567.35;233632;180;138038;-66
2024/03/19 09:53:45;;;;;;;10.10;4.70;;;;;;;9.23;46.35;99567.15;233658;180;154093;-63
2024/03/19 09:58:52;;;;;;;7.40;4.60;;;;;;;9.36;45.90;99567.23;233596;180;138160;-63
2024/03/19 10:03:55;;;;;;;6.10;5.10;;;;;;;9.59;45.25;99565.20;233710;180;140324;-63
2024/03/19 10:08:58;;;;;;;7.20;5.30;;;;;;;9.82;44.63;99566.93;233447;180;152299;-62
2024/03/19 10:14:05;;;;;;;5.60;4.40;;;;;;;9.76;44.09;99561.89;233639;180;137824;-60
2024/03/19 10:19:11;;;;;;;520.70;365.70;;;;;;;9.81;44.63;99561.66;233612;179;137797;-59
2024/03/19 10:24:16;;;;;;;9.30;6.70;;;;;;;10.10;45.03;99563.00;233655;179;153314;-58
2024/03/19 10:29:19;;;;;;;6.50;4.70;;;;;;;10.34;43.63;99560.17;233695;180;138242;-59
2024/03/19 10:34:23;;;;;;;6.10;4.70;;;;;;;10.59;43.36;99561.88;233630;179;138051;-59
2024/03/19 10:39:26;;;;;;;79.40;60.60;;;;;;;10.80;43.75;99566.59;233662;179;153823;-59
2024/03/19 10:44:35;;;;;;;6.70;5.40;;;;;;;10.97;42.34;99566.00;233660;179;137951;-59
2024/03/19 10:49:38;;;;;;;7.70;5.10;;;;;;;11.20;43.23;99562.42;233648;179;137868;-59
2024/03/19 10:54:44;;;;;;;6.30;4.30;;;;;;;11.28;42.88;99559.29;233642;179;153168;-58
2024/03/19 10:59:47;;;;;;;5.20;3.40;;;;;;;11.16;41.89;99566.02;233696;168;138210;-63
2024/03/19 11:04:57;;;;;;;4.50;3.80;;;;;;;11.24;40.58;99569.30;233567;179;137949;-59
2024/03/19 11:10:00;;;;;;;6.50;4.30;;;;;;;11.55;41.06;99565.42;233590;179;153198;-60
2024/03/19 11:15:03;;;;;;;4.20;3.70;;;;;;;11.84;39.95;99562.14;233652;179;137739;-59
2024/03/19 11:20:07;;;;;;;5.50;4.80;;;;;;;11.91;38.63;99556.41;233679;179;137342;-57
2024/03/19 11:25:13;;;;;;;7.80;4.00;;;;;;;12.04;38.70;99553.34;233649;179;153041;-59
2024/03/19 11:30:17;;;;;;;;;;;;;;;12.13;37.28;99550.31;233635;179;139116;-59
2024/03/19 11:35:23;;;;;;;6.00;4.90;;;;;;;12.24;38.39;99545.57;233640;179;138253;-59
2024/03/19 11:40:26;;;;;;;7.20;5.30;;;;;;;12.38;38.37;99549.84;233576;179;153099;-58
2024/03/19 11:45:29;;;;;;;6.10;4.70;;;;;;;12.62;39.06;99546.44;233399;180;138649;-58
2024/03/19 11:50:32;;;;;;;6.50;4.50;;;;;;;12.89;38.41;99546.09;233693;179;138243;-59
2024/03/19 11:55:38;;;;;;;5.80;4.00;;;;;;;13.18;36.88;99545.89;233736;180;152036;-59
2024/03/19 12:00:42;;;;;;;6.50;4.10;;;;;;;13.40;37.01;99541.27;233705;179;138296;-58
2024/03/19 12:05:46;;;;;;;8.20;4.50;;;;;;;13.63;36.66;99535.66;233329;179;138652;-59
2024/03/19 12:10:49;;;;;;;4.10;3.70;;;;;;;14.05;36.92;99530.48;233660;168;154654;-58
2024/03/19 12:15:52;;;;;;;5.50;3.40;;;;;;;14.28;36.04;99526.27;233386;179;138123;-60
2024/03/19 12:20:55;;;;;;;4.60;3.60;;;;;;;14.36;33.59;99525.80;233684;179;137246;-56
2024/03/19 12:25:58;;;;;;;3.90;3.40;;;;;;;14.43;33.46;99525.02;233719;168;153205;-58
2024/03/19 12:31:01;;;;;;;5.00;3.80;;;;;;;14.58;34.34;99522.56;233543;180;138412;-58
2024/03/19 12:36:05;;;;;;;357.90;240.40;;;;;;;14.80;34.73;99520.23;233631;180;137547;-58
2024/03/19 12:41:09;;;;;;;8.90;6.50;;;;;;;14.83;34.26;99520.05;233467;180;153002;-58
2024/03/19 12:46:12;;;;;;;6.30;4.00;;;;;;;14.76;34.12;99518.60;233725;180;138176;-58
2024/03/19 12:51:15;;;;;;;5.10;3.80;;;;;;;14.76;34.44;99514.45;233765;173;139125;-59
2024/03/19 12:56:18;;;;;;;35.70;31.40;;;;;;;14.56;33.22;99513.39;233622;179;152971;-56
2024/03/19 13:01:21;;;;;;;5.80;3.70;;;;;;;14.56;33.89;99509.98;233687;180;137487;-58
2024/03/19 13:06:24;;;;;;;4.60;3.90;;;;;;;14.56;33.73;99510.17;233722;180;137571;-59
2024/03/19 13:11:26;;;;;;;4.50;3.50;;;;;;;14.67;34.02;99506.34;233682;180;153108;-59
2024/03/19 13:16:30;;;;;;;4.70;4.10;;;;;;;14.84;34.04;99503.16;233646;180;137631;-59
2024/03/19 13:21:33;;;;;;;4.10;3.70;;;;;;;15.15;33.28;99495.05;233622;180;138353;-59
2024/03/19 13:26:36;;;;;;;5.10;3.30;;;;;;;15.49;32.92;99488.73;233673;180;153634;-58
2024/03/19 13:31:39;;;;;;;17.30;13.70;;;;;;;15.74;33.06;99482.42;233725;180;138367;-62
2024/03/19 13:36:42;;;;;;;4.90;3.90;;;;;;;15.91;31.06;99483.23;233721;179;138144;-60
2024/03/19 13:41:46;;;;;;;7.40;4.60;;;;;;;15.91;31.47;99477.18;233533;180;155115;-62
2024/03/19 13:46:49;;;;;;;9.40;6.30;;;;;;;15.97;32.37;99477.23;233676;180;136878;-60
2024/03/19 13:51:57;;;;;;;6.60;3.80;;;;;;;16.05;31.80;99476.98;233657;180;137442;-61
2024/03/19 13:57:00;;;;;;;4.80;3.50;;;;;;;15.80;31.05;99472.98;233520;180;153229;-60
2024/03/19 14:02:03;;;;;;;6.00;4.00;;;;;;;15.33;31.87;99476.17;233610;180;137283;-61
2024/03/19 14:07:06;;;;;;;59.30;41.60;;;;;;;14.74;32.51;99481.93;233655;180;137800;-61
2024/03/19 14:12:10;;;;;;;8.70;4.10;;;;;;;14.28;33.48;99482.66;233669;180;153765;-61
2024/03/19 14:17:13;;;;;;;5.80;4.10;;;;;;;13.84;33.79;99485.17;233712;180;138027;-62
2024/03/19 14:22:16;;;;;;;7.50;4.20;;;;;;;13.44;34.35;99485.59;233618;180;137140;-60
2024/03/19 14:27:19;;;;;;;10.50;4.20;;;;;;;13.10;35.15;99483.70;233601;176;153136;-64
2024/03/19 14:32:26;;;;;;;5.70;3.70;;;;;;;12.78;35.62;99487.70;233594;179;137374;-60
2024/03/19 14:37:28;;;;;;;5.00;4.00;;;;;;;12.56;35.89;99493.02;233754;179;137025;-59
2024/03/19 14:42:35;;;;;;;5.40;3.60;;;;;;;12.36;36.05;99499.58;233643;180;152861;-60
2024/03/19 14:47:38;;;;;;;55.60;36.30;;;;;;;12.18;36.24;99496.46;233725;180;137582;-60
2024/03/19 14:52:41;;;;;;;6.40;4.40;;;;;;;12.00;35.86;99498.62;233699;180;138477;-60
2024/03/19 14:57:43;;;;;;;17.60;13.20;;;;;;;11.85;36.80;99498.98;232920;180;153214;-61
2024/03/19 15:02:49;;;;;;;5.90;3.90;;;;;;;11.77;37.10;99494.83;233649;179;137295;-60
2024/03/19 15:07:52;;;;;;;5.50;4.30;;;;;;;11.66;37.93;99497.43;233589;180;137476;-60
2024/03/19 15:12:55;;;;;;;9.10;4.20;;;;;;;11.51;38.69;99502.92;233610;180;153225;-60
2024/03/19 15:17:58;;;;;;;7.10;4.00;;;;;;;11.44;38.54;99500.86;233584;179;136948;-61
2024/03/19 15:23:02;;;;;;;5.70;4.30;;;;;;;11.40;39.14;99497.53;233652;180;138533;-61
2024/03/19 15:28:06;;;;;;;5.20;4.20;;;;;;;11.31;39.68;99501.05;233651;179;152005;-60
2024/03/19 15:33:10;;;;;;;8.50;3.90;;;;;;;11.25;39.96;99501.25;233383;179;138673;-60
2024/03/19 15:38:14;;;;;;;10.00;4.50;;;;;;;11.16;40.32;99508.30;233774;179;139712;-61
2024/03/19 15:43:17;;;;;;;46.70;34.80;;;;;;;11.10;40.81;99515.03;233692;179;154935;-61
2024/03/19 15:48:20;;;;;;;7.70;5.30;;;;;;;11.06;41.09;99519.71;233576;179;137970;-61
2024/03/19 15:53:23;;;;;;;7.30;4.30;;;;;;;11.00;40.68;99526.05;233582;176;137809;-61
2024/03/19 15:58:26;;;;;;;6.80;4.20;;;;;;;10.95;40.86;99529.95;233637;179;153126;-61
2024/03/19 16:03:29;;;;;;;5.80;3.80;;;;;;;10.85;40.83;99532.96;233635;179;137197;-60
2024/03/19 16:08:35;;;;;;;6.30;4.20;;;;;;;10.74;40.98;99539.42;233715;179;138474;-60
2024/03/19 16:13:38;;;;;;;7.50;4.30;;;;;;;10.64;41.03;99537.13;233718;176;154237;-59
2024/03/19 16:18:40;;;;;;;7.70;3.90;;;;;;;10.57;41.17;99541.38;233680;168;137139;-62
2024/03/19 16:23:43;;;;;;;5.90;3.70;;;;;;;10.50;41.47;99538.58;233597;179;137709;-61
2024/03/19 16:28:47;;;;;;;6.00;3.80;;;;;;;10.42;41.76;99540.80;233680;179;153217;-60
2024/03/19 16:33:50;;;;;;;8.10;4.30;;;;;;;10.34;42.28;99539.80;233416;179;138593;-60
2024/03/19 16:38:53;;;;;;;491.90;353.80;;;;;;;10.28;43.00;99541.35;233588;180;137703;-60
2024/03/19 16:43:56;;;;;;;18.70;11.60;;;;;;;10.32;43.72;99541.31;233714;180;153731;-61
2024/03/19 16:48:59;;;;;;;9.00;5.50;;;;;;;10.20;42.48;99546.70;233560;180;137803;-61
2024/03/19 16:54:02;;;;;;;7.40;4.90;;;;;;;10.07;42.87;99555.01;233573;180;137545;-62
2024/03/19 16:59:05;;;;;;;7.40;4.70;;;;;;;9.95;43.13;99564.14;233671;180;153141;-60
2024/03/19 17:04:08;;;;;;;131.40;89.30;;;;;;;9.85;44.00;99570.48;233673;180;139865;-60
2024/03/19 17:09:13;;;;;;;9.90;7.10;;;;;;;9.84;44.28;99576.36;233606;180;139768;-61
2024/03/19 17:14:19;;;;;;;12.30;5.70;;;;;;;9.71;43.98;99581.81;233606;180;153019;-61
2024/03/19 17:19:22;;;;;;;11.20;6.30;;;;;;;9.59;44.43;99590.73;233656;180;138575;-61
2024/03/19 17:24:25;;;;;;;10.50;6.10;;;;;;;9.52;45.08;99601.70;233751;180;138128;-59
2024/03/19 17:29:29;;;;;;;11.50;6.30;;;;;;;9.44;45.48;99606.52;233698;180;152815;-61
2024/03/19 17:34:32;;;;;;;8.80;6.10;;;;;;;9.35;45.73;99611.58;233644;179;140825;-61
2024/03/19 17:39:45;;;;;;;11.40;7.00;;;;;;;9.25;45.80;99615.40;233816;176;137306;-61
2024/03/19 17:44:48;;;;;;;12.00;7.70;;;;;;;9.17;46.01;99623.91;233713;180;153822;-59
2024/03/19 17:49:51;;;;;;;15.90;8.30;;;;;;;9.09;46.16;99635.12;233610;179;138141;-63
2024/03/19 17:54:54;;;;;;;15.00;8.70;;;;;;;8.99;46.27;99636.60;233653;179;137327;-63
2024/03/19 17:59:57;;;;;;;13.10;8.80;;;;;;;8.91;46.51;99640.00;233686;180;153738;-63
2024/03/19 18:05:01;;;;;;;12.80;8.50;;;;;;;8.86;46.41;99642.54;233545;180;138088;-64
2024/03/19 18:10:05;;;;;;;14.30;8.90;;;;;;;8.78;46.80;99646.77;233679;180;137827;-63
2024/03/19 18:15:15;;;;;;;25.70;9.20;;;;;;;8.72;47.07;99653.24;233685;179;153205;-63
2024/03/19 18:20:20;;;;;;;17.40;9.50;;;;;;;8.67;47.11;99657.36;233643;179;137979;-63
2024/03/19 18:25:25;;;;;;;28.60;17.70;;;;;;;8.60;47.51;99661.91;233760;168;137363;-62
2024/03/19 18:30:28;;;;;;;66.80;43.00;;;;;;;8.69;48.94;99666.08;233654;179;153265;-60
2024/03/19 18:35:31;;;;;;;22.50;11.80;;;;;;;8.78;49.61;99666.77;233614;180;138047;-62
2024/03/19 18:40:34;;;;;;;22.40;11.10;;;;;;;8.67;47.60;99674.15;233754;179;141193;-65
2024/03/19 18:45:37;;;;;;;19.60;11.10;;;;;;;8.57;47.48;99675.83;233624;177;153143;-65
2024/03/19 18:50:40;;;;;;;16.30;11.10;;;;;;;8.47;47.93;99683.87;233727;180;138618;-64
2024/03/19 18:55:43;;;;;;;20.00;11.80;;;;;;;8.37;48.59;99691.69;233708;179;137670;-62
2024/03/19 19:00:46;;;;;;;217.70;145.10;;;;;;;8.37;49.72;99692.80;233741;179;154539;-62
2024/03/19 19:05:49;;;;;;;29.70;17.30;;;;;;;8.62;51.33;99698.05;233713;179;138342;-63
2024/03/19 19:10:53;;;;;;;26.60;13.70;;;;;;;8.73;48.86;99696.51;233411;179;138674;-63
2024/03/19 19:15:57;;;;;;;23.50;13.40;;;;;;;8.73;49.03;99702.20;233708;169;154358;-63
2024/03/19 19:21:00;;;;;;;30.10;15.60;;;;;;;8.69;49.14;99707.48;233648;179;137329;-63
2024/03/19 19:26:04;;;;;;;45.20;17.10;;;;;;;8.70;48.88;99707.09;233693;179;141124;-63
2024/03/19 19:31:08;;;;;;;57.60;17.40;;;;;;;8.73;48.83;99707.85;233590;179;154246;-63
2024/03/19 19:36:11;;;;;;;178.30;99.70;;;;;;;8.74;49.30;99710.48;233376;180;138033;-62
2024/03/19 19:41:14;;;;;;;113.50;64.40;;;;;;;8.78;50.49;99714.55;233647;179;137899;-60
2024/03/19 19:46:18;;;;;;;40.90;19.30;;;;;;;8.86;49.67;99711.73;233584;179;154266;-62
2024/03/19 19:51:21;;;;;;;45.60;21.90;;;;;;;8.62;49.80;99714.52;233674;179;138154;-60
2024/03/19 19:56:24;;;;;;;43.40;19.00;;;;;;;8.48;49.83;99716.91;233633;179;138308;-61
2024/03/19 20:01:27;;;;;;;38.80;18.10;;;;;;;8.25;50.29;99718.17;233672;179;153269;-61
2024/03/19 20:06:33;;;;;;;34.60;18.90;;;;;;;8.06;50.59;99720.36;233662;179;137891;-60
2024/03/19 20:11:36;;;;;;;41.80;19.70;;;;;;;7.93;50.73;99716.67;233663;179;137424;-59
2024/03/19 20:16:40;;;;;;;34.60;18.40;;;;;;;7.81;51.00;99717.31;233662;179;154603;-60
2024/03/19 20:21:43;;;;;;;27.60;15.70;;;;;;;7.71;51.09;99714.91;233492;179;137930;-61
2024/03/19 20:26:46;;;;;;;28.10;17.00;;;;;;;7.65;51.34;99718.13;233675;179;137243;-61
2024/03/19 20:31:50;;;;;;;29.10;16.70;;;;;;;7.56;51.64;99719.72;233743;179;153188;-61
2024/03/19 20:36:53;;;;;;;28.80;16.70;;;;;;;7.47;51.97;99725.35;233590;173;138209;-59
2024/03/19 20:41:56;;;;;;;32.90;17.80;;;;;;;7.40;52.10;99722.96;233675;180;138856;-61
2024/03/19 20:46:59;;;;;;;30.30;15.70;;;;;;;7.30;52.30;99719.62;233690;180;153751;-60
2024/03/19 20:52:02;;;;;;;33.40;16.80;;;;;;;7.20;52.89;99723.91;233558;179;138312;-61
2024/03/19 20:57:05;;;;;;;35.40;17.80;;;;;;;7.11;53.05;99722.81;233681;180;137231;-59
2024/03/19 21:02:10;;;;;;;45.90;19.60;;;;;;;7.01;53.34;99723.19;233592;180;153089;-60
2024/03/19 21:07:13;;;;;;;47.00;20.70;;;;;;;6.94;53.55;99726.10;233716;179;137816;-60
2024/03/19 21:12:16;;;;;;;47.00;21.00;;;;;;;6.87;53.95;99724.75;233690;180;138375;-61
2024/03/19 21:17:19;;;;;;;44.30;22.10;;;;;;;6.78;54.33;99722.96;233756;180;154253;-60
2024/03/19 21:22:24;;;;;;;54.30;22.30;;;;;;;6.69;54.49;99725.24;233642;180;137292;-60
2024/03/19 21:27:27;;;;;;;55.20;22.70;;;;;;;6.55;55.00;99726.77;233522;180;137484;-59
2024/03/19 21:32:31;;;;;;;47.00;23.70;;;;;;;6.44;55.44;99725.89;233557;180;154748;-60
2024/03/19 21:37:37;;;;;;;46.50;22.70;;;;;;;6.30;55.88;99728.86;233726;180;139329;-60
2024/03/19 21:42:40;;;;;;;43.80;21.90;;;;;;;6.18;56.49;99733.65;233679;180;138302;-61
2024/03/19 21:47:43;;;;;;;51.50;22.40;;;;;;;6.09;56.89;99732.36;233676;179;153228;-60
2024/03/19 21:52:46;;;;;;;47.80;23.20;;;;;;;6.00;57.06;99735.13;233725;179;137742;-58
2024/03/19 21:57:49;;;;;;;46.40;23.40;;;;;;;5.93;57.39;99729.86;233678;179;137398;-61
2024/03/19 22:02:52;;;;;;;49.70;23.40;;;;;;;5.84;57.45;99729.96;233679;180;153685;-61
2024/03/19 22:07:55;;;;;;;45.70;23.00;;;;;;;5.76;57.55;99729.34;233678;180;138519;-61
2024/03/19 22:12:57;;;;;;;50.20;23.10;;;;;;;5.67;57.78;99728.39;233633;180;137393;-61
2024/03/19 22:18:01;;;;;;;43.80;21.60;;;;;;;5.56;58.04;99725.19;233658;173;153112;-62
2024/03/19 22:23:04;;;;;;;42.90;20.20;;;;;;;5.51;58.17;99723.45;233658;179;138182;-61
2024/03/19 22:28:07;;;;;;;48.00;21.00;;;;;;;5.44;58.70;99717.80;233706;179;137513;-61
2024/03/19 22:33:13;;;;;;;46.40;21.30;;;;;;;5.36;59.07;99721.40;233562;180;153864;-61
2024/03/19 22:38:16;;;;;;;53.30;22.80;;;;;;;5.30;59.42;99717.19;233656;179;139131;-60
2024/03/19 22:43:18;;;;;;;50.40;22.50;;;;;;;5.26;59.45;99720.13;233542;179;137638;-60
2024/03/19 22:48:21;;;;;;;58.50;22.10;;;;;;;5.19;59.58;99719.61;233654;179;154145;-59
2024/03/19 22:53:24;;;;;;;53.30;23.50;;;;;;;5.09;59.70;99720.26;233487;180;138289;-60
2024/03/19 22:58:28;;;;;;;59.90;25.10;;;;;;;5.07;59.97;99720.66;233675;180;137911;-60
2024/03/19 23:03:31;;;;;;;52.00;23.20;;;;;;;4.98;60.10;99718.27;233609;179;154304;-60
2024/03/19 23:08:34;;;;;;;50.00;20.70;;;;;;;4.91;60.21;99717.96;233706;179;138378;-60
2024/03/19 23:13:37;;;;;;;45.90;21.70;;;;;;;4.81;60.32;99726.85;233596;179;137588;-60
2024/03/19 23:18:40;;;;;;;40.90;20.60;;;;;;;4.76;60.71;99727.33;233739;179;153138;-59
2024/03/19 23:23:44;;;;;;;35.90;20.00;;;;;;;4.74;60.78;99725.46;233710;179;138996;-60